Terlet Airfield

EHTL · Gelderland, 荷兰

使用的TAF站离机场有47 km的距离
2024年3月1日 15:002024年3月2日 03:00有效
时间
星期五
15:00
星期五
16:00
星期五
17:00
星期五
18:00
星期五
19:00
星期五
20:00
星期五
21:00
星期五
22:00
星期五
23:00
星期六
00:00
星期六
01:00
星期六
02:00
代码
VFR
VFR
VFR
VFR
VFR
VFR
VFR
VFR
VFR
VFR
VFR
VFR
天气
碎云
碎云
碎云
碎云
碎云
碎云
碎云
碎云
碎云
碎云
碎云
碎云
能见度
10 km+
10 km+
10 km+
10 km+
10 km+
10 km+
10 km+
10 km+
10 km+
10 km+
10 km+
10 km+
天花板
4.500 ft
4.500 ft
4.500 ft
4.500 ft
4.500 ft
4.500 ft
4.500 ft
4.500 ft
4.500 ft
4.500 ft
4.500 ft
4.500 ft
170°
170°
170°
170°
170°
170°
170°
170°
170°
170°
170°
170°
170°
170°
170°
170°
170°
170°
170°
170°
170°
170°
170°
170°
速度
15 kt
15 kt
15 kt
15 kt
15 kt
12 kt
12 kt
12 kt
12 kt
12 kt
12 kt
12 kt
阵风
27 kt
27 kt
27 kt
27 kt
27 kt
温度/星期日
18:17

原版的

TAF EHVK 011309Z 0114/0202 17015G27KT 9999 BKN045
BECMG 0117/0119 17012KT

TAF Terlet Airfield

Terlet Airfield是,荷兰中的格利德菲尔德。 该机场位于纬度52,05526和经度5,92560。 该机场有6条跑道: 14R/32L, 12/30, 14L/32R, 4L/22R, 4C/22C 和 4R/22L. 本场的ICAO机场代码为EHTL。 机场在Amsterdam FIR中。

该航空气象观测是针对Volkel Air Base在2024年3月1日 14:09, 当地时间进行的。 从2024年3月1日 15:00到2024年3月2日 03:00, 当地时间有效.

预报

  • 在星期五 15:00和星期六 03:00之间

    • 风: 风来自170°方向,速度为15 kt。 预计27 kt阵风。
    • 能见度: 10 km 或者更多
    • 乌云: 碎云在4.500 ft的高度.
  • 介于星期五 18:00和20:00之间

    • 风: 风来自170°方向,速度为12 kt。

白天

今天,太阳从07:20升起,在18:16降落。 这适用于Terlet Airfield,世界夏令时可能有所不同。 当地时间与世界标准时间之间的时差为+1 小时。 当前,没有夏令时有效。